createdAt,value
2023-05-07T00:00:21.813Z,99.90
2023-05-07T00:02:48.874Z,99.90
2023-05-07T00:05:16.170Z,99.90
2023-05-07T00:07:43.068Z,1.00
2023-05-07T00:10:13.685Z,1.00
2023-05-07T00:12:42.022Z,1.00
2023-05-07T00:15:09.244Z,1.00
2023-05-07T00:17:36.234Z,1.00
2023-05-07T00:20:04.542Z,1.00
2023-05-07T00:22:31.469Z,1.00
2023-05-07T00:24:58.152Z,1.00
2023-05-07T00:27:25.211Z,1.00
2023-05-07T00:29:51.895Z,1.00
2023-05-07T00:32:18.473Z,1.00
2023-05-07T00:34:45.202Z,1.00
2023-05-07T00:37:12.914Z,1.00
2023-05-07T00:39:39.791Z,1.00
2023-05-07T00:42:06.455Z,1.00
2023-05-07T00:44:33.146Z,1.00
2023-05-07T00:47:04.370Z,1.00
2023-05-07T00:49:41.183Z,1.00
2023-05-07T00:52:10.309Z,1.00
2023-05-07T00:54:37.650Z,1.00
2023-05-07T00:57:04.962Z,1.00
2023-05-07T00:59:34.831Z,1.00
2023-05-07T01:02:01.605Z,1.00
2023-05-07T01:04:28.497Z,99.90
2023-05-07T01:06:57.356Z,99.90
2023-05-07T01:09:26.093Z,99.90
2023-05-07T01:11:53.468Z,99.90
2023-05-07T01:14:21.462Z,99.90
2023-05-07T01:16:49.117Z,99.90
2023-05-07T01:19:19.418Z,99.90
2023-05-07T01:21:50.140Z,99.90
2023-05-07T01:24:17.292Z,99.90
2023-05-07T01:26:45.474Z,99.90
2023-05-07T01:29:12.383Z,99.90
2023-05-07T01:31:41.576Z,93.60
2023-05-07T01:34:12.023Z,50.10
2023-05-07T01:36:40.945Z,1.00
2023-05-07T01:39:07.933Z,44.40
2023-05-07T01:41:34.987Z,99.90
2023-05-07T01:44:02.385Z,99.90
2023-05-07T01:46:29.667Z,97.70
2023-05-07T01:48:56.648Z,11.20
2023-05-07T01:51:23.624Z,59.20
2023-05-07T01:53:51.795Z,1.00
2023-05-07T01:56:19.358Z,4.90
2023-05-07T01:58:49.681Z,24.70
2023-05-07T02:01:16.366Z,39.10
2023-05-07T02:03:43.295Z,45.40
2023-05-07T02:06:09.994Z,33.70
2023-05-07T02:08:36.860Z,75.30
2023-05-07T02:11:03.569Z,99.90
2023-05-07T02:13:33.004Z,24.90
2023-05-07T02:15:59.699Z,23.50
2023-05-07T02:18:26.517Z,1.00
2023-05-07T02:20:53.130Z,1.00
2023-05-07T02:23:19.839Z,1.00
2023-05-07T02:25:46.993Z,1.00
2023-05-07T02:28:14.131Z,91.00
2023-05-07T02:30:41.321Z,35.60
2023-05-07T02:33:09.493Z,15.50
2023-05-07T02:35:36.335Z,1.00
2023-05-07T02:38:03.221Z,1.00
2023-05-07T02:40:29.851Z,1.00
2023-05-07T02:42:56.614Z,1.00
2023-05-07T02:45:23.257Z,83.60
2023-05-07T02:47:49.880Z,78.00
2023-05-07T02:50:16.850Z,99.90
2023-05-07T02:52:43.475Z,99.90
2023-05-07T02:55:10.229Z,92.30
2023-05-07T02:57:36.976Z,1.00
2023-05-07T03:00:17.854Z,1.00
2023-05-07T03:02:45.355Z,1.00
2023-05-07T03:05:12.823Z,1.00
2023-05-07T03:07:39.439Z,1.00
2023-05-07T03:10:06.372Z,1.00
2023-05-07T03:12:32.996Z,1.00
2023-05-07T03:14:59.611Z,1.00
2023-05-07T03:17:26.289Z,1.00
2023-05-07T03:19:52.909Z,1.00
2023-05-07T03:22:19.608Z,1.00
2023-05-07T03:24:46.266Z,1.00
2023-05-07T03:27:12.835Z,1.00
2023-05-07T03:29:39.423Z,1.00
2023-05-07T03:32:08.269Z,1.00
2023-05-07T03:34:34.922Z,1.00
2023-05-07T03:37:01.535Z,26.20
2023-05-07T03:39:28.188Z,1.00
2023-05-07T03:41:54.901Z,20.10
2023-05-07T03:44:21.498Z,99.90
2023-05-07T03:46:48.261Z,86.90
2023-05-07T03:49:14.873Z,99.90
2023-05-07T03:51:41.575Z,99.90
2023-05-07T03:54:08.655Z,99.90
2023-05-07T03:56:35.242Z,99.90
2023-05-07T03:59:02.497Z,82.10
2023-05-07T04:01:29.324Z,99.90
2023-05-07T04:03:56.560Z,99.90
2023-05-07T04:06:23.626Z,94.20
2023-05-07T04:08:50.228Z,99.90
2023-05-07T04:11:16.887Z,91.70
2023-05-07T04:13:43.498Z,99.90
2023-05-07T04:16:10.239Z,99.90
2023-05-07T04:18:36.937Z,99.90
2023-05-07T04:21:03.608Z,99.90
2023-05-07T04:23:30.225Z,99.90
2023-05-07T04:25:57.000Z,99.90
2023-05-07T04:28:23.873Z,99.90
2023-05-07T04:30:50.690Z,99.90
2023-05-07T04:33:18.278Z,99.90
2023-05-07T04:35:44.966Z,99.90
2023-05-07T04:38:12.054Z,99.90
2023-05-07T04:40:39.841Z,99.90
2023-05-07T04:43:06.477Z,99.90
2023-05-07T04:45:33.338Z,99.90
2023-05-07T04:47:59.978Z,99.90
2023-05-07T04:50:26.889Z,99.10
2023-05-07T04:52:53.636Z,76.30
2023-05-07T04:55:20.404Z,99.90
2023-05-07T04:57:47.198Z,14.80
2023-05-07T05:00:17.506Z,1.00
2023-05-07T05:02:44.244Z,1.00
2023-05-07T05:05:11.126Z,1.00
2023-05-07T05:07:38.129Z,1.00
2023-05-07T05:10:06.754Z,1.00
2023-05-07T05:12:33.362Z,1.00
2023-05-07T05:14:59.959Z,1.00
2023-05-07T05:17:26.612Z,1.00
2023-05-07T05:19:53.248Z,1.00
2023-05-07T05:22:19.812Z,1.00
2023-05-07T05:24:46.424Z,1.00
2023-05-07T05:27:13.061Z,1.00
2023-05-07T05:29:39.712Z,1.00
2023-05-07T05:32:06.391Z,1.00
2023-05-07T05:34:34.232Z,1.00
2023-05-07T05:37:00.840Z,1.00
2023-05-07T05:39:27.451Z,1.00
2023-05-07T05:41:54.022Z,1.00
2023-05-07T05:44:20.692Z,1.00
2023-05-07T05:46:47.417Z,1.00
2023-05-07T05:49:14.049Z,1.00
2023-05-07T05:51:40.725Z,1.00
2023-05-07T05:54:07.412Z,1.00
2023-05-07T05:56:34.356Z,1.00
2023-05-07T05:59:01.000Z,99.90
2023-05-07T06:01:27.654Z,99.90
2023-05-07T06:03:54.298Z,99.90
2023-05-07T06:06:20.956Z,99.90
2023-05-07T06:08:47.639Z,99.90
2023-05-07T06:11:14.241Z,99.90
2023-05-07T06:13:40.848Z,99.90
2023-05-07T06:16:07.894Z,99.90
2023-05-07T06:18:37.016Z,99.90
2023-05-07T06:21:03.751Z,99.90
2023-05-07T06:23:30.333Z,82.50
2023-05-07T06:25:57.105Z,58.50
2023-05-07T06:28:23.726Z,87.40
2023-05-07T06:30:51.020Z,71.20
2023-05-07T06:33:17.662Z,68.20
2023-05-07T06:35:44.260Z,77.80
2023-05-07T06:38:11.558Z,99.90
2023-05-07T06:40:38.153Z,60.30
2023-05-07T06:45:34.257Z,1.00
2023-05-07T06:48:01.055Z,1.00
2023-05-07T06:50:27.754Z,1.00
2023-05-07T06:52:54.454Z,1.00
2023-05-07T06:55:21.212Z,1.00
2023-05-07T06:57:48.056Z,1.00
2023-05-07T07:00:15.457Z,1.00
2023-05-07T07:02:42.835Z,1.00
2023-05-07T07:05:10.208Z,1.00
2023-05-07T07:07:39.522Z,26.70
2023-05-07T07:10:08.001Z,23.10
2023-05-07T07:12:34.758Z,18.60
2023-05-07T07:15:01.665Z,72.90
2023-05-07T07:17:28.582Z,99.90
2023-05-07T07:19:55.389Z,1.00
2023-05-07T07:22:22.027Z,1.00
2023-05-07T07:24:48.900Z,1.00
2023-05-07T07:27:15.660Z,1.00
2023-05-07T07:29:42.470Z,1.00
2023-05-07T07:32:09.431Z,1.00
2023-05-07T07:34:36.220Z,1.00
2023-05-07T07:37:06.423Z,1.00
2023-05-07T07:39:34.301Z,1.00
2023-05-07T07:42:01.142Z,1.00
2023-05-07T07:44:29.089Z,1.00
2023-05-07T07:46:55.943Z,1.00
2023-05-07T07:49:22.810Z,1.00
2023-05-07T07:51:49.663Z,1.00
2023-05-07T07:54:16.365Z,1.00
2023-05-07T07:56:43.012Z,1.00
2023-05-07T07:59:09.996Z,1.00
2023-05-07T08:01:36.760Z,1.00
2023-05-07T08:04:04.436Z,99.90
2023-05-07T08:06:31.255Z,99.90
2023-05-07T08:08:58.113Z,99.90
2023-05-07T08:11:24.812Z,99.90
2023-05-07T08:13:51.777Z,99.90
2023-05-07T08:16:18.564Z,99.90
2023-05-07T08:18:45.294Z,99.90
2023-05-07T08:21:12.268Z,1.00
2023-05-07T08:23:39.095Z,1.00
2023-05-07T08:26:05.951Z,99.90
2023-05-07T08:28:32.934Z,99.90
2023-05-07T08:31:01.614Z,99.90
2023-05-07T08:33:28.780Z,99.90
2023-05-07T08:35:55.556Z,99.90
2023-05-07T08:38:22.339Z,1.00
2023-05-07T08:40:49.204Z,99.90
2023-05-07T08:43:16.161Z,99.90
2023-05-07T08:45:44.498Z,99.90
2023-05-07T08:48:17.162Z,99.90
2023-05-07T08:50:44.189Z,99.90
2023-05-07T08:55:40.483Z,99.90
2023-05-07T08:58:07.888Z,99.90
2023-05-07T09:00:34.719Z,99.90
2023-05-07T09:03:01.877Z,99.90
2023-05-07T09:05:28.702Z,99.90
2023-05-07T09:07:58.297Z,99.90
2023-05-07T09:10:25.113Z,99.90
2023-05-07T09:12:51.933Z,99.90
2023-05-07T09:15:19.668Z,99.90
2023-05-07T09:17:46.658Z,99.90
2023-05-07T09:20:13.624Z,99.90
2023-05-07T09:22:40.518Z,99.90
2023-05-07T09:25:08.368Z,99.90
2023-05-07T09:27:34.994Z,99.90
2023-05-07T09:30:08.068Z,99.90
2023-05-07T09:32:39.029Z,99.90
2023-05-07T09:35:06.459Z,57.00
2023-05-07T09:37:33.466Z,39.50
2023-05-07T09:40:00.116Z,79.40
2023-05-07T09:42:30.010Z,80.80
2023-05-07T09:44:56.954Z,92.60
2023-05-07T09:47:25.719Z,80.60
2023-05-07T09:49:56.822Z,90.40
2023-05-07T09:52:24.739Z,42.80
2023-05-07T09:54:52.267Z,14.50
2023-05-07T09:57:21.411Z,9.00
2023-05-07T09:59:50.254Z,1.00
2023-05-07T10:02:18.479Z,1.00
2023-05-07T10:04:46.493Z,4.10
2023-05-07T10:07:14.560Z,1.00
2023-05-07T10:09:43.258Z,1.00
2023-05-07T10:12:10.799Z,1.00
2023-05-07T10:14:38.006Z,1.00
2023-05-07T10:17:05.070Z,1.00
2023-05-07T10:19:34.019Z,1.00
2023-05-07T10:22:06.984Z,1.00
2023-05-07T10:24:38.458Z,1.00
2023-05-07T10:27:15.374Z,1.00
2023-05-07T10:30:07.634Z,1.00
2023-05-07T10:32:41.399Z,1.00
2023-05-07T10:35:14.651Z,1.00
2023-05-07T10:37:42.245Z,1.00
2023-05-07T10:40:10.983Z,1.00
2023-05-07T10:42:37.752Z,1.00
2023-05-07T10:45:15.201Z,1.00
2023-05-07T10:48:29.050Z,1.00
2023-05-07T10:51:20.002Z,1.00
2023-05-07T10:53:46.601Z,1.00
2023-05-07T10:56:19.652Z,1.00
2023-05-07T10:58:46.473Z,1.00
2023-05-07T11:01:14.253Z,1.00
2023-05-07T11:04:14.096Z,1.00
2023-05-07T11:06:41.458Z,1.00
2023-05-07T11:09:08.428Z,1.00
2023-05-07T11:11:52.003Z,1.00
2023-05-07T11:14:42.154Z,1.00
2023-05-07T11:17:09.433Z,1.00
2023-05-07T11:19:56.580Z,1.00
2023-05-07T11:22:32.481Z,1.00
2023-05-07T11:25:06.868Z,1.00
2023-05-07T11:27:34.092Z,1.00
2023-05-07T11:30:02.163Z,1.00
2023-05-07T11:32:31.097Z,1.00
2023-05-07T11:34:59.427Z,1.00
2023-05-07T11:37:27.729Z,1.00
2023-05-07T11:40:08.630Z,1.00
2023-05-07T11:42:38.636Z,1.00
2023-05-07T11:45:06.816Z,1.00
2023-05-07T11:47:34.299Z,1.00
2023-05-07T11:50:07.093Z,1.00
2023-05-07T11:52:34.188Z,1.00
2023-05-07T11:55:01.828Z,1.00
2023-05-07T11:57:29.483Z,1.00
2023-05-07T12:00:00.384Z,1.00
2023-05-07T12:02:27.601Z,1.00
2023-05-07T12:04:55.278Z,1.00
2023-05-07T12:07:22.227Z,1.00
2023-05-07T12:09:49.117Z,1.00
2023-05-07T12:12:16.619Z,1.00
2023-05-07T12:14:44.695Z,1.00
2023-05-07T12:17:13.049Z,1.00
2023-05-07T12:19:42.776Z,1.00
2023-05-07T12:22:09.866Z,1.00
2023-05-07T12:24:50.740Z,1.00
2023-05-07T12:27:18.585Z,1.00
2023-05-07T12:29:49.061Z,1.00
2023-05-07T12:32:20.620Z,1.00
2023-05-07T12:34:50.334Z,1.00
2023-05-07T12:37:17.294Z,1.00
2023-05-07T12:39:51.300Z,1.00
2023-05-07T12:42:21.211Z,1.00
2023-05-07T12:44:47.957Z,1.00
2023-05-07T12:47:16.058Z,1.00
2023-05-07T12:49:43.135Z,1.00
2023-05-07T12:52:10.066Z,1.00
2023-05-07T12:54:39.512Z,1.00
2023-05-07T12:57:08.230Z,1.00
2023-05-07T12:59:39.874Z,1.00
2023-05-07T13:02:07.421Z,1.00
2023-05-07T13:04:34.288Z,1.00
2023-05-07T13:07:01.944Z,1.00
2023-05-07T13:09:30.064Z,1.00
2023-05-07T13:11:56.767Z,1.00
2023-05-07T13:14:23.380Z,1.00
2023-05-07T13:16:50.351Z,1.00
2023-05-07T13:19:17.145Z,1.00
2023-05-07T13:21:43.832Z,1.00
2023-05-07T13:24:10.508Z,1.00
2023-05-07T13:26:37.206Z,1.00
2023-05-07T13:29:03.867Z,1.00
2023-05-07T13:31:31.015Z,1.00
2023-05-07T13:33:57.732Z,1.00
2023-05-07T13:36:24.354Z,1.00
2023-05-07T13:38:52.553Z,1.00
2023-05-07T13:41:19.396Z,1.00
2023-05-07T13:43:46.119Z,1.00
2023-05-07T13:46:12.786Z,1.00
2023-05-07T13:48:39.431Z,1.00
2023-05-07T13:51:06.017Z,1.00
2023-05-07T13:53:32.626Z,1.00
2023-05-07T13:55:59.269Z,1.00
2023-05-07T13:58:26.053Z,1.00
2023-05-07T14:00:53.041Z,1.00
2023-05-07T14:03:20.785Z,1.00
2023-05-07T14:05:49.626Z,1.00
2023-05-07T14:08:19.548Z,1.00
2023-05-07T14:10:47.045Z,1.00
2023-05-07T14:13:13.723Z,1.00
2023-05-07T14:15:41.300Z,1.00
2023-05-07T14:18:08.045Z,1.00
2023-05-07T14:20:37.640Z,1.00
2023-05-07T14:23:04.350Z,1.00
2023-05-07T14:25:31.062Z,1.00
2023-05-07T14:27:57.655Z,1.00
2023-05-07T14:30:25.384Z,1.00
2023-05-07T14:32:52.050Z,1.00
2023-05-07T14:35:18.869Z,1.00
2023-05-07T14:37:45.530Z,1.00
2023-05-07T14:40:12.820Z,1.00
2023-05-07T14:42:39.676Z,1.00
2023-05-07T14:45:06.825Z,1.00
2023-05-07T14:47:33.530Z,1.00
2023-05-07T14:50:02.283Z,1.00
2023-05-07T14:52:29.041Z,1.00
2023-05-07T14:54:55.674Z,1.00
2023-05-07T14:57:22.781Z,1.00
2023-05-07T14:59:50.290Z,1.00
2023-05-07T15:02:20.962Z,1.00
2023-05-07T15:04:48.264Z,1.00
2023-05-07T15:07:18.583Z,1.00
2023-05-07T15:09:46.081Z,1.00
2023-05-07T15:12:12.822Z,1.00
2023-05-07T15:14:40.314Z,1.00
2023-05-07T15:17:08.218Z,1.00
2023-05-07T15:19:34.991Z,1.00
2023-05-07T15:22:03.650Z,1.00
2023-05-07T15:24:31.699Z,1.00
2023-05-07T15:26:59.216Z,1.00
2023-05-07T15:29:26.512Z,1.00
2023-05-07T15:31:53.570Z,1.00
2023-05-07T15:34:20.430Z,1.00
2023-05-07T15:36:47.591Z,1.00
2023-05-07T15:39:14.216Z,1.00
2023-05-07T15:41:40.927Z,1.00
2023-05-07T15:44:07.568Z,1.00
2023-05-07T15:46:34.267Z,1.00
2023-05-07T15:49:04.252Z,1.00
2023-05-07T15:51:31.959Z,1.00
2023-05-07T15:53:58.646Z,1.00
2023-05-07T15:56:25.383Z,1.00
2023-05-07T15:58:53.274Z,1.00
2023-05-07T16:01:20.065Z,1.00
2023-05-07T16:03:47.215Z,1.00
2023-05-07T16:06:14.071Z,1.00
2023-05-07T16:08:41.609Z,1.00
2023-05-07T16:11:08.278Z,1.00
2023-05-07T16:13:35.484Z,1.00
2023-05-07T16:16:02.100Z,1.00
2023-05-07T16:18:28.894Z,1.00
2023-05-07T16:20:55.873Z,1.00
2023-05-07T16:23:22.671Z,1.00
2023-05-07T16:25:50.427Z,1.00
2023-05-07T16:28:17.740Z,1.00
2023-05-07T16:30:44.817Z,1.00
2023-05-07T16:33:11.529Z,1.00
2023-05-07T16:35:38.344Z,1.00
2023-05-07T16:38:10.314Z,1.00
2023-05-07T16:40:40.763Z,1.00
2023-05-07T16:43:08.111Z,1.00
2023-05-07T16:45:35.076Z,1.00
2023-05-07T16:48:03.381Z,1.00
2023-05-07T16:50:30.707Z,1.00
2023-05-07T16:52:57.529Z,1.00
2023-05-07T16:55:24.277Z,1.00
2023-05-07T16:57:51.143Z,1.00
2023-05-07T17:00:18.162Z,1.00
2023-05-07T17:02:45.739Z,1.00
2023-05-07T17:05:13.004Z,1.00
2023-05-07T17:07:39.972Z,1.00
2023-05-07T17:10:07.030Z,1.00
2023-05-07T17:12:35.821Z,1.00
2023-05-07T17:15:03.198Z,1.00
2023-05-07T17:17:29.845Z,1.00
2023-05-07T17:19:57.390Z,1.00
2023-05-07T17:22:25.066Z,1.00
2023-05-07T17:24:51.838Z,1.00
2023-05-07T17:27:19.017Z,1.00
2023-05-07T17:29:45.723Z,1.00
2023-05-07T17:32:13.010Z,1.00
2023-05-07T17:34:41.026Z,1.00
2023-05-07T17:37:07.937Z,1.00
2023-05-07T17:39:35.058Z,1.00
2023-05-07T17:42:01.668Z,1.00
2023-05-07T17:44:28.834Z,1.00
2023-05-07T17:46:55.866Z,1.00
2023-05-07T17:49:22.872Z,1.00
2023-05-07T17:51:54.731Z,1.00
2023-05-07T17:54:24.430Z,1.00
2023-05-07T17:56:51.589Z,1.00
2023-05-07T17:59:18.353Z,1.00
2023-05-07T18:01:44.947Z,1.00
2023-05-07T18:04:11.595Z,1.00
2023-05-07T18:06:39.151Z,1.00
2023-05-07T18:09:06.035Z,1.00
2023-05-07T18:11:33.709Z,1.00
2023-05-07T18:14:01.358Z,1.00
2023-05-07T18:16:28.337Z,1.00
2023-05-07T18:18:55.524Z,1.00
2023-05-07T18:21:22.347Z,1.00
2023-05-07T18:23:49.417Z,1.00
2023-05-07T18:26:16.542Z,1.00
2023-05-07T18:28:43.545Z,1.00
2023-05-07T18:31:11.065Z,1.00
2023-05-07T18:33:37.928Z,1.00
2023-05-07T18:36:04.854Z,1.00
2023-05-07T18:38:32.749Z,1.00
2023-05-07T18:41:06.052Z,1.00
2023-05-07T18:43:34.158Z,1.00
2023-05-07T18:46:01.124Z,1.00
2023-05-07T18:48:39.535Z,1.00
2023-05-07T18:51:07.895Z,1.00
2023-05-07T18:53:34.844Z,1.00
2023-05-07T18:56:01.971Z,1.00
2023-05-07T18:58:29.037Z,1.00
2023-05-07T19:00:55.958Z,1.00
2023-05-07T19:03:22.676Z,1.00
2023-05-07T19:05:49.436Z,1.00
2023-05-07T19:08:16.224Z,1.00
2023-05-07T19:10:43.011Z,1.00
2023-05-07T19:13:09.667Z,1.00
2023-05-07T19:15:36.320Z,1.00
2023-05-07T19:18:03.201Z,1.00
2023-05-07T19:20:29.883Z,1.00
2023-05-07T19:22:56.657Z,1.00
2023-05-07T19:25:23.470Z,1.00
2023-05-07T19:27:51.224Z,1.00
2023-05-07T19:30:21.024Z,1.00
2023-05-07T19:32:47.780Z,1.00
2023-05-07T19:35:14.816Z,1.00
2023-05-07T19:37:41.840Z,1.00
2023-05-07T19:40:09.604Z,1.00
2023-05-07T19:42:36.436Z,1.00
2023-05-07T19:45:04.697Z,1.00
2023-05-07T19:47:31.831Z,24.80
2023-05-07T19:49:58.672Z,1.00
2023-05-07T19:52:25.684Z,1.00
2023-05-07T19:54:52.466Z,1.00
2023-05-07T19:57:19.260Z,1.00
2023-05-07T19:59:47.217Z,5.30
2023-05-07T20:02:14.246Z,11.10
2023-05-07T20:04:40.902Z,7.20
2023-05-07T20:07:07.746Z,9.80
2023-05-07T20:09:34.842Z,23.00
2023-05-07T20:12:01.597Z,33.50
2023-05-07T20:14:28.276Z,24.60
2023-05-07T20:16:55.146Z,23.30
2023-05-07T20:19:21.862Z,22.70
2023-05-07T20:21:48.763Z,18.20
2023-05-07T20:24:16.748Z,24.20
2023-05-07T20:26:43.405Z,33.00
2023-05-07T20:29:10.219Z,26.50
2023-05-07T20:31:36.842Z,31.20
2023-05-07T20:34:03.577Z,37.30
2023-05-07T20:36:30.512Z,37.30
2023-05-07T20:38:57.199Z,61.50
2023-05-07T20:41:25.443Z,49.70
2023-05-07T20:43:52.217Z,50.40
2023-05-07T20:46:22.892Z,50.90
2023-05-07T20:48:49.954Z,71.40
2023-05-07T20:51:16.809Z,77.90
2023-05-07T20:53:47.977Z,86.20
2023-05-07T20:56:15.545Z,99.90
2023-05-07T20:58:42.395Z,99.90
2023-05-07T21:01:09.113Z,99.90
2023-05-07T21:03:35.827Z,99.90
2023-05-07T21:06:04.087Z,99.90
2023-05-07T21:08:31.280Z,99.90
2023-05-07T21:10:58.361Z,99.90
2023-05-07T21:13:25.046Z,99.90
2023-05-07T21:15:52.113Z,99.90
2023-05-07T21:18:19.485Z,99.90
2023-05-07T21:20:46.143Z,99.90
2023-05-07T21:23:12.963Z,85.90
2023-05-07T21:25:41.210Z,40.70
2023-05-07T21:28:08.802Z,37.30
2023-05-07T21:30:36.108Z,43.60
2023-05-07T21:33:03.047Z,41.50
2023-05-07T21:35:29.986Z,50.40
2023-05-07T21:37:56.664Z,50.00
2023-05-07T21:40:23.452Z,34.60
2023-05-07T21:42:50.243Z,28.50
2023-05-07T21:45:16.902Z,26.40
2023-05-07T21:47:43.532Z,6.00
2023-05-07T21:50:11.009Z,3.10
2023-05-07T21:52:38.061Z,12.70
2023-05-07T21:55:05.069Z,11.10
2023-05-07T21:57:31.824Z,29.60
2023-05-07T21:59:58.443Z,23.10
2023-05-07T22:02:25.787Z,20.80
2023-05-07T22:04:52.818Z,23.60
2023-05-07T22:07:19.495Z,10.10
2023-05-07T22:09:46.177Z,4.40
2023-05-07T22:12:12.814Z,7.20
2023-05-07T22:14:39.407Z,9.80
2023-05-07T22:17:06.256Z,13.40
2023-05-07T22:19:32.918Z,13.70
2023-05-07T22:21:59.703Z,13.80
2023-05-07T22:24:26.347Z,16.80
2023-05-07T22:26:53.128Z,22.60
2023-05-07T22:29:23.257Z,26.10
2023-05-07T22:31:50.692Z,30.10
2023-05-07T22:34:17.473Z,42.90
2023-05-07T22:36:44.226Z,51.10
2023-05-07T22:39:11.063Z,56.60
2023-05-07T22:41:37.719Z,50.90
2023-05-07T22:44:04.489Z,54.00
2023-05-07T22:46:31.158Z,64.20
2023-05-07T22:48:57.889Z,95.30
2023-05-07T22:51:24.523Z,99.90
2023-05-07T22:53:52.481Z,91.80
2023-05-07T22:56:19.132Z,92.60
2023-05-07T22:58:46.941Z,99.90
2023-05-07T23:01:15.031Z,99.90
2023-05-07T23:03:41.856Z,99.90
2023-05-07T23:06:08.640Z,99.90
2023-05-07T23:08:35.425Z,99.90
2023-05-07T23:11:02.052Z,99.90
2023-05-07T23:13:28.748Z,99.90
2023-05-07T23:15:55.515Z,99.90
2023-05-07T23:18:22.169Z,99.90
2023-05-07T23:20:48.781Z,99.90
2023-05-07T23:23:15.355Z,99.90
2023-05-07T23:25:41.963Z,99.90
2023-05-07T23:28:08.640Z,99.90
2023-05-07T23:30:35.440Z,99.90
2023-05-07T23:33:02.111Z,99.90
2023-05-07T23:35:28.720Z,99.90
2023-05-07T23:37:55.400Z,99.90
2023-05-07T23:40:22.234Z,99.90
2023-05-07T23:42:48.916Z,99.90
2023-05-07T23:45:15.594Z,99.90
2023-05-07T23:47:42.300Z,99.90
2023-05-07T23:50:09.336Z,99.90
2023-05-07T23:52:35.963Z,99.90
2023-05-07T23:55:02.559Z,99.90
2023-05-07T23:57:29.153Z,99.90
2023-05-07T23:59:55.831Z,99.90
